Time;durP1;ratioP1;P1;durP2;ratioP2;P2;SDS_P1;SDS_P2;PMS_P1;PMS_P2;Temp;Humidity;BMP_temperature;BMP_pressure;BME280_temperature;BME280_humidity;BME280_pressure;Samples;Min_cycle;Max_cycle;Signal;HPM_P1;HPM_P2
2024/01/07 00:09:42;;;;;;;7.90;6.32;;;;;;;19.28;52.45;96119.97;20914694;28;20103;-54
2024/01/07 00:20:02;;;;;;;7.72;5.70;;;;;;;19.22;52.25;96124.81;20911563;28;20053;-57
2024/01/07 00:30:22;;;;;;;6.82;6.13;;;;;;;19.19;52.30;96130.09;20909967;28;20106;-57
2024/01/07 00:40:43;;;;;;;7.28;5.97;;;;;;;19.14;52.51;96128.41;20935058;28;20513;-57
2024/01/07 00:51:03;;;;;;;6.53;5.63;;;;;;;19.09;52.36;96132.16;20908163;28;20060;-58
2024/01/07 01:01:23;;;;;;;7.32;5.22;;;;;;;19.08;52.32;96138.66;20906730;28;20049;-57
2024/01/07 01:11:44;;;;;;;5.60;5.00;;;;;;;19.03;52.36;96149.66;20898285;28;20059;-57
2024/01/07 01:22:03;;;;;;;7.20;5.22;;;;;;;19.00;52.38;96155.75;20904128;28;20049;-57
2024/01/07 01:32:23;;;;;;;6.95;5.00;;;;;;;18.97;52.34;96159.09;20889998;28;20045;-55
2024/01/07 01:42:47;;;;;;;8.05;5.32;;;;;;;18.93;52.43;96166.31;20901888;28;20056;-54
2024/01/07 01:53:07;;;;;;;5.82;5.10;;;;;;;18.89;52.38;96171.56;20899722;28;20057;-55
2024/01/07 02:03:27;;;;;;;5.30;4.80;;;;;;;18.89;52.37;96181.59;20896416;28;20114;-55
2024/01/07 02:13:47;;;;;;;5.72;4.90;;;;;;;18.84;52.34;96174.50;20878993;28;20064;-55
2024/01/07 02:24:15;;;;;;;5.28;4.72;;;;;;;18.78;52.42;96189.31;20922003;28;20049;-54
2024/01/07 02:34:35;;;;;;;4.32;3.92;;;;;;;18.76;52.28;96189.63;20894541;28;20421;-54
2024/01/07 02:44:54;;;;;;;5.93;4.60;;;;;;;18.75;52.44;96189.97;20893601;28;20052;-54
2024/01/07 02:55:13;;;;;;;5.45;4.63;;;;;;;18.69;52.13;96186.69;20892850;28;20380;-55
2024/01/07 03:05:33;;;;;;;5.60;4.57;;;;;;;18.67;52.12;96190.84;20893751;28;20064;-55
2024/01/07 03:15:53;;;;;;;4.80;4.35;;;;;;;18.64;52.22;96188.81;20890083;28;20045;-55
2024/01/07 03:26:13;;;;;;;4.68;4.13;;;;;;;18.60;52.12;96195.97;20890752;28;20052;-54
2024/01/07 03:36:33;;;;;;;4.40;4.00;;;;;;;18.57;52.15;96200.16;20885561;28;20065;-55
2024/01/07 03:46:52;;;;;;;4.22;3.80;;;;;;;18.52;52.12;96198.44;20919940;28;20457;-55
2024/01/07 03:57:11;;;;;;;4.93;4.28;;;;;;;18.51;52.31;96201.47;20907048;28;20064;-55
2024/01/07 04:07:31;;;;;;;3.85;3.47;;;;;;;18.48;52.33;96212.91;20905775;28;20055;-58
2024/01/07 04:17:50;;;;;;;4.28;3.85;;;;;;;18.44;52.17;96230.88;20903473;28;20065;-57
2024/01/07 04:28:10;;;;;;;4.60;4.10;;;;;;;18.40;52.19;96230.75;20905677;28;20052;-56
2024/01/07 04:38:30;;;;;;;4.03;3.65;;;;;;;18.39;52.11;96237.28;20905218;28;20060;-57
2024/01/07 04:48:50;;;;;;;3.92;3.53;;;;;;;18.36;52.05;96252.19;20915003;28;20053;-57
2024/01/07 04:59:10;;;;;;;3.88;3.28;;;;;;;18.32;52.04;96251.25;20804332;28;20073;-57
2024/01/07 05:09:29;;;;;;;3.72;3.35;;;;;;;18.28;51.95;96271.91;20903855;28;20391;-54
2024/01/07 05:19:49;;;;;;;3.83;3.30;;;;;;;18.26;52.19;96278.75;20896274;28;20052;-57
2024/01/07 05:30:08;;;;;;;3.92;3.58;;;;;;;18.25;52.04;96294.16;20898342;28;20395;-55
2024/01/07 05:40:28;;;;;;;3.28;2.97;;;;;;;18.20;51.85;96297.03;20896959;28;20064;-56
2024/01/07 05:50:48;;;;;;;3.72;3.42;;;;;;;18.17;52.05;96303.09;20910494;28;20041;-57
2024/01/07 06:01:08;;;;;;;3.38;3.08;;;;;;;18.14;52.07;96322.59;20896298;28;20126;-57
2024/01/07 06:11:28;;;;;;;3.30;3.00;;;;;;;18.12;51.96;96322.16;20897079;28;20053;-56
2024/01/07 06:21:47;;;;;;;3.50;3.05;;;;;;;18.12;51.96;96333.72;20919685;28;20091;-55
2024/01/07 06:32:07;;;;;;;3.67;3.03;;;;;;;18.12;52.01;96339.09;20895530;28;20413;-54
2024/01/07 06:42:26;;;;;;;3.05;2.75;;;;;;;18.12;51.85;96362.59;20917821;28;20063;-55
2024/01/07 06:52:46;;;;;;;3.70;3.03;;;;;;;18.15;51.50;96383.47;20889325;28;20417;-55
2024/01/07 07:03:06;;;;;;;3.08;2.78;;;;;;;18.14;51.62;96395.41;20888340;28;20057;-55
2024/01/07 07:13:26;;;;;;;4.40;2.80;;;;;;;18.18;51.57;96415.19;20891563;28;20470;-55
2024/01/07 07:23:45;;;;;;;2.80;2.60;;;;;;;18.25;50.91;96420.06;20907900;28;20056;-55
2024/01/07 07:34:05;;;;;;;2.92;2.55;;;;;;;18.32;50.94;96436.53;20873823;28;20049;-54
2024/01/07 07:44:25;;;;;;;2.85;2.65;;;;;;;18.43;50.87;96439.69;20886820;28;20056;-55
2024/01/07 07:54:44;;;;;;;3.25;2.95;;;;;;;18.53;51.30;96450.88;20880893;28;20064;-55
2024/01/07 08:05:04;;;;;;;3.53;2.55;;;;;;;18.64;51.33;96455.91;20877348;28;20079;-54
2024/01/07 08:15:26;;;;;;;7.68;3.25;;;;;;;18.77;53.83;96479.94;20881056;28;20057;-55
2024/01/07 08:25:45;;;;;;;5.35;3.05;;;;;;;18.91;55.30;96495.13;20882845;28;20064;-54
2024/01/07 08:36:05;;;;;;;4.05;2.80;;;;;;;19.03;54.16;96505.22;20880514;28;20057;-57
2024/01/07 08:46:25;;;;;;;11.13;3.10;;;;;;;19.07;53.39;96504.25;20896630;28;20052;-56
2024/01/07 08:56:45;;;;;;;3.95;2.90;;;;;;;19.15;52.67;96519.63;20880059;28;20057;-57
2024/01/07 09:07:04;;;;;;;4.40;2.97;;;;;;;19.16;50.61;96534.69;20821562;28;20111;-58
2024/01/07 09:17:24;;;;;;;10.00;3.40;;;;;;;19.30;49.90;96537.13;20824375;28;20045;-55
2024/01/07 09:27:43;;;;;;;7.05;3.15;;;;;;;19.38;50.14;96549.00;20849643;28;20079;-56
2024/01/07 09:38:03;;;;;;;6.88;3.13;;;;;;;19.53;52.09;96548.41;20820825;28;20049;-56
2024/01/07 09:48:23;;;;;;;6.20;2.75;;;;;;;19.68;52.06;96546.22;20817320;28;20053;-56
2024/01/07 09:58:43;;;;;;;3.97;2.60;;;;;;;19.87;53.43;96553.88;20810863;28;20057;-55
2024/01/07 10:09:03;;;;;;;6.18;2.95;;;;;;;20.00;52.74;96550.09;20785058;28;20049;-55
2024/01/07 10:19:23;;;;;;;4.88;3.67;;;;;;;20.12;47.60;96542.03;20797889;28;20050;-56
2024/01/07 10:29:43;;;;;;;9.85;4.95;;;;;;;19.75;38.72;96555.41;20813931;28;20068;-58
2024/01/07 10:40:03;;;;;;;8.88;6.13;;;;;;;19.87;39.26;96554.66;20810530;28;20135;-56
2024/01/07 10:50:24;;;;;;;9.88;6.07;;;;;;;20.05;47.08;96560.72;20819719;28;20835;-56
2024/01/07 11:00:44;;;;;;;8.60;5.55;;;;;;;20.21;48.90;96563.59;20855211;28;20060;-55
2024/01/07 11:11:07;;;;;;;9.57;6.13;;;;;;;20.39;51.10;96571.53;20937838;28;20044;-53
2024/01/07 11:21:28;;;;;;;11.35;6.97;;;;;;;20.60;56.11;96556.03;20885644;28;20051;-50
2024/01/07 11:31:48;;;;;;;7.78;6.70;;;;;;;20.06;51.03;96564.22;20891266;28;20056;-53
2024/01/07 11:42:07;;;;;;;7.80;5.38;;;;;;;20.49;52.61;96573.78;20881455;28;20049;-54
2024/01/07 11:52:29;;;;;;;6.75;4.75;;;;;;;20.54;52.64;96568.16;20891033;28;20053;-54
2024/01/07 12:02:49;;;;;;;15.30;6.18;;;;;;;20.49;52.06;96577.28;20845459;28;20399;-54
2024/01/07 12:13:10;;;;;;;11.82;4.78;;;;;;;20.45;51.92;96578.31;20882302;28;20124;-59
2024/01/07 12:23:35;;;;;;;11.57;4.70;;;;;;;20.40;52.54;96600.16;20893477;28;20822;-57
2024/01/07 12:33:56;;;;;;;6.78;4.05;;;;;;;20.36;50.38;96594.63;20889906;28;20510;-55
2024/01/07 12:44:17;;;;;;;23.27;6.95;;;;;;;20.39;51.95;96601.28;20886722;28;20045;-55
2024/01/07 12:54:38;;;;;;;10.32;5.40;;;;;;;19.56;42.26;96620.72;20864398;28;20061;-55
2024/01/07 13:04:58;;;;;;;10.35;4.25;;;;;;;19.85;43.56;96621.78;20814490;28;20060;-55
2024/01/07 13:15:17;;;;;;;10.50;4.70;;;;;;;20.00;43.54;96622.34;20870464;28;20045;-54
2024/01/07 13:25:37;;;;;;;14.18;4.82;;;;;;;20.03;44.73;96622.47;20826102;28;20057;-54
2024/01/07 13:35:56;;;;;;;10.98;4.47;;;;;;;20.06;45.65;96634.53;20797510;28;20049;-58
2024/01/07 13:46:16;;;;;;;7.45;4.60;;;;;;;20.04;46.12;96645.66;20805252;28;20415;-57
2024/01/07 13:56:37;;;;;;;12.73;4.72;;;;;;;19.97;47.00;96661.63;20809558;28;20064;-56
2024/01/07 14:06:57;;;;;;;12.25;4.50;;;;;;;19.85;45.13;96675.84;20889310;28;20056;-59
2024/01/07 14:17:16;;;;;;;13.07;5.35;;;;;;;19.92;47.63;96688.88;20907329;28;20126;-61
2024/01/07 14:27:36;;;;;;;12.10;4.70;;;;;;;20.02;48.83;96684.97;20878401;28;20114;-58
2024/01/07 14:37:57;;;;;;;7.20;4.25;;;;;;;19.99;49.84;96701.84;20859185;28;20924;-55
2024/01/07 14:48:16;;;;;;;7.28;3.92;;;;;;;19.91;50.52;96704.28;20872649;28;20055;-54
2024/01/07 14:58:35;;;;;;;13.68;4.15;;;;;;;19.88;51.09;96713.06;20817676;28;20049;-55
2024/01/07 15:08:55;;;;;;;11.25;4.53;;;;;;;19.85;52.21;96718.31;20905526;28;20095;-54
2024/01/07 15:19:14;;;;;;;7.63;3.40;;;;;;;19.78;51.07;96732.38;20836410;28;20398;-55
2024/01/07 15:29:33;;;;;;;9.25;3.95;;;;;;;19.74;51.37;96777.41;20893811;28;20075;-54
2024/01/07 15:39:54;;;;;;;8.50;3.83;;;;;;;19.67;50.63;96766.25;20892476;28;20444;-55
2024/01/07 15:50:14;;;;;;;7.00;3.53;;;;;;;19.63;50.58;96786.94;20918241;28;20040;-58
2024/01/07 16:00:33;;;;;;;7.75;3.78;;;;;;;19.60;51.03;96799.19;20880052;28;20061;-57
2024/01/07 16:10:53;;;;;;;7.65;3.53;;;;;;;19.60;51.42;96831.63;20863112;28;20087;-56
2024/01/07 16:21:13;;;;;;;7.85;3.13;;;;;;;19.44;50.58;96842.16;20895303;28;20078;-57
2024/01/07 16:31:34;;;;;;;8.80;2.95;;;;;;;19.38;50.78;96846.13;20899691;28;20048;-58
2024/01/07 16:41:56;;;;;;;5.47;3.00;;;;;;;19.33;50.86;96859.84;20870991;28;20053;-58
2024/01/07 16:52:15;;;;;;;6.22;3.20;;;;;;;19.34;50.80;96856.00;20869790;28;20049;-56
2024/01/07 17:02:35;;;;;;;4.72;3.08;;;;;;;19.28;51.13;96866.19;20877370;28;20057;-58
2024/01/07 17:12:55;;;;;;;7.93;2.70;;;;;;;19.24;51.13;96878.75;20874370;28;20811;-58
2024/01/07 17:23:21;;;;;;;9.25;3.00;;;;;;;18.97;47.67;96890.66;20868844;28;20061;-58
2024/01/07 17:33:41;;;;;;;6.93;2.70;;;;;;;19.01;47.29;96907.81;20893909;28;20060;-58
2024/01/07 17:44:04;;;;;;;5.38;3.03;;;;;;;19.12;47.55;96922.59;20863499;28;20446;-60
2024/01/07 17:54:24;;;;;;;4.55;2.55;;;;;;;19.20;48.12;96925.63;20866014;28;20057;-62
2024/01/07 18:04:44;;;;;;;4.18;2.25;;;;;;;19.29;48.25;96934.53;20889708;28;20535;-56
2024/01/07 18:15:04;;;;;;;4.22;2.45;;;;;;;19.30;48.47;96950.38;20892242;28;20064;-55
2024/01/07 18:25:24;;;;;;;7.07;2.95;;;;;;;19.34;49.81;96964.06;20882049;28;20068;-54
2024/01/07 18:35:44;;;;;;;7.10;2.58;;;;;;;19.35;50.44;96976.47;20883691;28;20397;-56
2024/01/07 18:46:09;;;;;;;9.38;2.97;;;;;;;19.36;51.32;96973.41;20909168;28;20052;-56
2024/01/07 18:56:29;;;;;;;13.38;2.70;;;;;;;19.35;51.52;96987.28;20913045;28;20064;-55
2024/01/07 19:06:48;;;;;;;10.13;2.72;;;;;;;19.42;51.20;96998.38;20894750;28;20053;-54
2024/01/07 19:17:09;;;;;;;7.28;2.58;;;;;;;19.49;51.45;97004.09;20891033;28;20165;-57
2024/01/07 19:27:29;;;;;;;6.40;2.88;;;;;;;19.53;51.54;97015.06;20918783;28;20037;-55
2024/01/07 19:37:50;;;;;;;7.05;2.42;;;;;;;19.58;51.50;97020.31;20886296;28;20785;-55
2024/01/07 19:48:11;;;;;;;5.40;2.53;;;;;;;19.62;51.43;97023.16;20887251;28;20079;-57
2024/01/07 19:58:30;;;;;;;8.68;3.10;;;;;;;19.68;50.99;97035.41;20942804;28;20122;-56
2024/01/07 20:08:51;;;;;;;4.53;2.20;;;;;;;19.70;50.66;97030.50;20950534;28;20094;-57
2024/01/07 20:19:10;;;;;;;7.75;2.38;;;;;;;19.81;50.15;97041.78;20892758;28;20056;-56
2024/01/07 20:29:33;;;;;;;7.03;2.20;;;;;;;19.85;49.72;97048.94;20881924;28;20056;-61
2024/01/07 20:39:53;;;;;;;3.47;2.05;;;;;;;19.90;49.98;97056.09;20956728;28;20055;-62
2024/01/07 20:50:12;;;;;;;4.90;2.10;;;;;;;19.89;49.88;97060.69;20920178;28;20056;-61
2024/01/07 21:00:32;;;;;;;6.57;2.17;;;;;;;19.93;49.86;97056.25;20905014;28;20115;-58
2024/01/07 21:10:52;;;;;;;3.30;1.77;;;;;;;19.92;50.01;97068.19;20911974;28;20091;-60
2024/01/07 21:21:12;;;;;;;3.85;2.00;;;;;;;19.99;49.47;97061.50;20897969;28;20148;-59
2024/01/07 21:31:32;;;;;;;3.20;1.88;;;;;;;19.96;49.45;97057.53;20914578;28;20036;-59
2024/01/07 21:41:51;;;;;;;3.88;1.65;;;;;;;20.01;49.79;97059.25;20911124;28;20053;-55
2024/01/07 21:52:11;;;;;;;3.30;2.00;;;;;;;20.08;50.23;97062.28;20898394;28;20045;-56
2024/01/07 22:02:30;;;;;;;3.38;1.95;;;;;;;20.10;49.88;97076.28;20885933;28;20689;-55
2024/01/07 22:12:49;;;;;;;3.85;1.95;;;;;;;20.08;49.95;97084.69;20891124;28;20056;-55
2024/01/07 22:23:08;;;;;;;2.78;1.92;;;;;;;20.11;49.74;97085.97;20880359;28;20458;-55
2024/01/07 22:33:28;;;;;;;3.08;1.80;;;;;;;20.05;49.76;97098.06;20879453;28;20513;-56
2024/01/07 22:43:48;;;;;;;2.58;1.73;;;;;;;20.06;49.58;97107.78;20891334;28;20106;-59
2024/01/07 22:54:08;;;;;;;3.58;2.05;;;;;;;20.02;49.73;97123.84;20908679;28;20073;-59
2024/01/07 23:04:27;;;;;;;2.90;1.90;;;;;;;20.00;49.62;97119.88;20873568;28;20057;-58
2024/01/07 23:14:47;;;;;;;2.83;1.65;;;;;;;19.97;49.39;97129.41;20882674;28;20448;-59
2024/01/07 23:25:07;;;;;;;2.67;1.80;;;;;;;19.94;49.25;97124.66;20876411;28;20053;-59
2024/01/07 23:35:27;;;;;;;2.20;1.65;;;;;;;19.89;49.41;97133.69;20881040;28;20597;-60
2024/01/07 23:45:46;;;;;;;2.83;1.58;;;;;;;19.83;49.28;97136.88;20879458;28;20486;-59
2024/01/07 23:56:05;;;;;;;2.00;1.40;;;;;;;19.81;49.23;97148.00;20899756;28;20053;-59
